createdAt,value
2023-02-09T00:02:23.950Z,68.08
2023-02-09T00:04:52.276Z,68.71
2023-02-09T00:07:20.636Z,64.77
2023-02-09T00:09:48.984Z,63.53
2023-02-09T00:12:34.630Z,64.91
2023-02-09T00:15:02.964Z,65.78
2023-02-09T00:17:33.650Z,63.94
2023-02-09T00:20:01.932Z,63.84
2023-02-09T00:22:30.599Z,63.18
2023-02-09T00:24:58.974Z,61.80
2023-02-09T00:27:27.298Z,62.13
2023-02-09T00:29:55.585Z,62.72
2023-02-09T00:32:23.908Z,61.65
2023-02-09T00:34:53.640Z,61.63
2023-02-09T00:37:21.968Z,60.61
2023-02-09T00:39:50.316Z,61.12
2023-02-09T00:42:18.589Z,61.98
2023-02-09T00:44:46.958Z,61.41
2023-02-09T00:47:15.247Z,61.82
2023-02-09T00:49:43.521Z,62.22
2023-02-09T00:52:13.192Z,61.09
2023-02-09T00:54:41.690Z,61.15
2023-02-09T00:57:09.984Z,62.29
2023-02-09T00:59:40.660Z,63.09
2023-02-09T01:02:09.165Z,63.17
2023-02-09T01:04:38.923Z,64.31
2023-02-09T01:07:07.281Z,64.20
2023-02-09T01:09:36.895Z,62.99
2023-02-09T01:12:06.199Z,65.93
2023-02-09T01:14:34.526Z,69.06
2023-02-09T01:17:02.984Z,67.99
2023-02-09T01:19:31.378Z,69.40
2023-02-09T01:21:59.703Z,68.63
2023-02-09T01:24:28.112Z,68.26
2023-02-09T01:26:58.225Z,70.02
2023-02-09T01:29:26.671Z,71.70
2023-02-09T01:31:55.126Z,70.60
2023-02-09T01:34:23.457Z,76.23
2023-02-09T01:36:51.766Z,74.26
2023-02-09T01:39:20.089Z,73.83
2023-02-09T01:41:48.470Z,74.85
2023-02-09T01:44:54.345Z,80.51
2023-02-09T01:47:24.135Z,84.49
2023-02-09T01:49:53.742Z,82.10
2023-02-09T01:52:25.023Z,78.11
2023-02-09T01:54:56.280Z,77.13
2023-02-09T01:57:26.801Z,80.22
2023-02-09T01:59:59.761Z,77.29
2023-02-09T02:02:29.648Z,83.38
2023-02-09T02:04:58.292Z,84.02
2023-02-09T02:07:29.456Z,85.22
2023-02-09T02:09:58.463Z,81.43
2023-02-09T02:12:27.523Z,80.58
2023-02-09T02:14:55.849Z,78.44
2023-02-09T02:17:31.827Z,76.11
2023-02-09T02:20:27.289Z,75.54
2023-02-09T02:23:06.224Z,74.58
2023-02-09T02:26:06.762Z,76.18
2023-02-09T02:28:46.844Z,77.53
2023-02-09T02:31:46.933Z,77.48
2023-02-09T02:34:20.533Z,78.32
2023-02-09T02:37:01.518Z,80.87
2023-02-09T02:39:33.556Z,79.49
2023-02-09T02:42:22.082Z,76.57
2023-02-09T02:44:57.693Z,74.38
2023-02-09T02:47:28.953Z,73.03
2023-02-09T02:49:59.782Z,73.49
2023-02-09T02:52:28.087Z,70.96
2023-02-09T02:55:02.817Z,67.28
2023-02-09T02:57:32.976Z,69.08
2023-02-09T03:00:05.130Z,76.99
2023-02-09T03:02:37.855Z,81.15
2023-02-09T03:05:07.204Z,75.46
2023-02-09T03:07:35.567Z,75.60
2023-02-09T03:10:23.475Z,77.62
2023-02-09T03:13:00.652Z,77.33
2023-02-09T03:15:35.484Z,86.44
2023-02-09T03:18:15.767Z,84.93
2023-02-09T03:20:50.017Z,89.52
2023-02-09T03:23:27.497Z,79.28
2023-02-09T03:25:57.437Z,77.92
2023-02-09T03:28:28.622Z,74.48
2023-02-09T03:30:57.693Z,72.06
2023-02-09T03:33:29.752Z,72.79
2023-02-09T03:36:00.583Z,68.14
2023-02-09T03:38:28.972Z,66.00
2023-02-09T03:40:57.408Z,66.69
2023-02-09T03:43:46.344Z,66.00
2023-02-09T03:46:14.724Z,70.15
2023-02-09T03:48:44.575Z,74.03
2023-02-09T03:51:13.390Z,72.31
2023-02-09T03:53:41.741Z,72.87
2023-02-09T03:56:10.217Z,72.58
2023-02-09T03:58:38.618Z,71.98
2023-02-09T04:01:09.398Z,77.13
2023-02-09T04:03:39.751Z,72.59
2023-02-09T04:06:10.984Z,68.89
2023-02-09T04:08:39.332Z,68.76
2023-02-09T04:11:07.884Z,68.95
2023-02-09T04:13:36.267Z,68.50
2023-02-09T04:16:04.962Z,68.33
2023-02-09T04:18:33.239Z,69.48
2023-02-09T04:21:01.613Z,69.05
2023-02-09T04:23:31.271Z,69.46
2023-02-09T04:25:59.620Z,68.66
2023-02-09T04:28:27.997Z,71.19
2023-02-09T04:30:57.227Z,68.40
2023-02-09T04:33:25.894Z,68.85
2023-02-09T04:35:54.319Z,67.27
2023-02-09T04:38:23.048Z,71.51
2023-02-09T04:40:54.102Z,76.32
2023-02-09T04:43:22.845Z,73.23
2023-02-09T04:45:51.199Z,73.74
2023-02-09T04:48:20.933Z,73.70
2023-02-09T04:50:49.863Z,73.56
2023-02-09T04:53:18.886Z,81.44
2023-02-09T04:55:48.905Z,77.48
2023-02-09T04:58:37.138Z,78.15
2023-02-09T05:01:05.970Z,76.84
2023-02-09T05:03:34.501Z,85.45
2023-02-09T05:06:04.624Z,85.56
2023-02-09T05:08:33.307Z,93.39
2023-02-09T05:11:02.100Z,100.00
2023-02-09T05:13:31.804Z,100.00
2023-02-09T05:16:00.172Z,100.00
2023-02-09T05:18:28.508Z,94.56
2023-02-09T05:20:56.799Z,93.17
2023-02-09T05:23:25.090Z,90.15
2023-02-09T05:25:54.605Z,94.70
2023-02-09T05:28:22.933Z,92.62
2023-02-09T05:30:53.940Z,84.54
2023-02-09T05:33:22.833Z,89.53
2023-02-09T05:35:51.894Z,92.55
2023-02-09T05:38:20.539Z,88.25
2023-02-09T05:40:49.239Z,90.74
2023-02-09T05:43:17.849Z,100.00
2023-02-09T05:45:46.642Z,100.00
2023-02-09T05:48:16.397Z,96.28
2023-02-09T05:50:44.970Z,92.14
2023-02-09T05:53:15.211Z,94.08
2023-02-09T05:55:43.972Z,100.00
2023-02-09T05:58:12.323Z,100.00
2023-02-09T06:00:40.629Z,100.00
2023-02-09T06:03:08.979Z,94.51
2023-02-09T06:05:38.716Z,97.89
2023-02-09T06:08:07.078Z,95.03
2023-02-09T06:10:35.379Z,92.54
2023-02-09T06:13:03.786Z,87.88
2023-02-09T06:15:32.130Z,84.06
2023-02-09T06:18:00.463Z,83.36
2023-02-09T06:20:28.790Z,81.60
2023-02-09T06:22:58.613Z,87.22
2023-02-09T06:25:26.958Z,91.16
2023-02-09T06:27:55.328Z,86.97
2023-02-09T06:30:23.713Z,82.41
2023-02-09T06:32:52.029Z,88.54
2023-02-09T06:35:20.370Z,96.97
2023-02-09T06:37:48.784Z,100.00
2023-02-09T06:40:18.686Z,100.00
2023-02-09T06:42:47.008Z,100.00
2023-02-09T06:45:16.694Z,100.00
2023-02-09T06:47:46.055Z,100.00
2023-02-09T06:50:16.063Z,96.48
2023-02-09T06:52:44.696Z,90.25
2023-02-09T06:55:13.528Z,87.24
2023-02-09T06:57:43.237Z,84.08
2023-02-09T07:00:13.805Z,85.07
2023-02-09T07:02:43.054Z,85.40
2023-02-09T07:05:11.489Z,82.79
2023-02-09T07:07:40.056Z,85.44
2023-02-09T07:10:09.977Z,82.90
2023-02-09T07:12:40.566Z,74.83
2023-02-09T07:15:11.445Z,72.19
2023-02-09T07:17:40.219Z,71.49
2023-02-09T07:20:10.136Z,73.25
2023-02-09T07:22:38.540Z,73.10
2023-02-09T07:25:08.000Z,75.28
2023-02-09T07:27:36.330Z,75.62
2023-02-09T07:30:05.011Z,75.64
2023-02-09T07:32:34.739Z,78.16
2023-02-09T07:35:03.125Z,77.10
2023-02-09T07:37:31.506Z,77.78
2023-02-09T07:39:59.903Z,77.11
2023-02-09T07:42:28.181Z,75.83
2023-02-09T07:44:56.502Z,75.39
2023-02-09T07:47:24.743Z,74.26
2023-02-09T07:49:54.407Z,73.93
2023-02-09T07:52:22.643Z,75.13
2023-02-09T07:54:52.899Z,77.00
2023-02-09T07:57:21.157Z,76.46
2023-02-09T07:59:49.419Z,74.61
2023-02-09T08:02:20.282Z,75.10
2023-02-09T08:04:48.605Z,72.51
2023-02-09T08:07:18.427Z,72.99
2023-02-09T08:09:47.093Z,77.15
2023-02-09T08:12:15.467Z,75.79
2023-02-09T08:14:48.310Z,72.26
2023-02-09T08:17:23.154Z,72.21
2023-02-09T08:19:54.892Z,77.52
2023-02-09T08:22:26.324Z,72.96
2023-02-09T08:24:54.788Z,72.32
2023-02-09T08:27:23.245Z,71.78
2023-02-09T08:29:51.602Z,74.29
2023-02-09T08:32:19.897Z,75.45
2023-02-09T08:34:48.159Z,69.81
2023-02-09T08:37:16.404Z,70.18
2023-02-09T08:39:46.761Z,69.48
2023-02-09T08:42:15.031Z,65.07
2023-02-09T08:44:43.350Z,62.08
2023-02-09T08:47:11.656Z,60.78
2023-02-09T08:49:39.988Z,62.13
2023-02-09T08:52:08.906Z,63.66
2023-02-09T08:54:37.629Z,62.66
2023-02-09T08:57:07.268Z,62.38
2023-02-09T08:59:35.561Z,60.65
2023-02-09T09:02:03.833Z,61.50
2023-02-09T09:04:32.397Z,60.63
2023-02-09T09:07:00.758Z,61.75
2023-02-09T09:09:29.010Z,60.09
2023-02-09T09:11:58.102Z,58.88
2023-02-09T09:14:27.757Z,58.52
2023-02-09T09:16:58.258Z,57.22
2023-02-09T09:19:26.369Z,58.26
2023-02-09T09:21:54.521Z,58.61
2023-02-09T09:24:23.822Z,57.16
2023-02-09T09:26:52.076Z,56.07
2023-02-09T09:29:20.349Z,56.33
2023-02-09T09:31:50.209Z,56.97
2023-02-09T09:34:18.498Z,58.03
2023-02-09T09:36:46.749Z,56.27
2023-02-09T09:39:15.223Z,57.73
2023-02-09T09:41:47.723Z,56.26
2023-02-09T09:44:19.048Z,56.37
2023-02-09T09:46:51.113Z,57.09
2023-02-09T09:49:25.655Z,58.05
2023-02-09T09:51:57.715Z,57.15
2023-02-09T09:54:27.135Z,56.25
2023-02-09T09:56:55.776Z,55.80
2023-02-09T09:59:27.315Z,59.93
2023-02-09T10:02:14.824Z,58.01
2023-02-09T10:04:43.099Z,56.91
2023-02-09T10:07:17.023Z,57.34
2023-02-09T10:09:49.562Z,59.16
2023-02-09T10:12:33.819Z,56.56
2023-02-09T10:15:17.858Z,59.52
2023-02-09T10:17:47.518Z,56.42
2023-02-09T10:20:15.779Z,55.57
2023-02-09T10:22:45.503Z,55.32
2023-02-09T10:25:36.605Z,55.54
2023-02-09T10:28:06.482Z,53.65
2023-02-09T10:30:35.269Z,53.06
2023-02-09T10:33:05.103Z,51.82
2023-02-09T10:35:45.065Z,52.89
2023-02-09T10:38:17.507Z,52.50
2023-02-09T10:40:47.542Z,51.71
2023-02-09T10:43:24.030Z,52.46
2023-02-09T10:45:56.805Z,51.79
2023-02-09T10:48:27.611Z,50.46
2023-02-09T10:50:58.468Z,52.60
2023-02-09T10:53:29.025Z,50.57
2023-02-09T10:56:03.448Z,51.50
2023-02-09T10:58:34.102Z,50.08
2023-02-09T11:01:15.258Z,51.08
2023-02-09T11:04:00.207Z,49.80
2023-02-09T11:06:29.146Z,49.40
2023-02-09T11:09:00.744Z,48.85
2023-02-09T11:11:31.595Z,48.61
2023-02-09T11:14:00.357Z,51.66
2023-02-09T11:16:59.290Z,54.78
2023-02-09T11:19:47.679Z,52.75
2023-02-09T11:22:20.647Z,50.97
2023-02-09T11:24:56.495Z,51.61
2023-02-09T11:27:41.879Z,51.19
2023-02-09T11:30:19.373Z,51.72
2023-02-09T11:32:51.920Z,51.42
2023-02-09T11:35:23.704Z,49.16
2023-02-09T11:37:57.465Z,50.06
2023-02-09T11:40:29.407Z,52.53
2023-02-09T11:43:05.885Z,51.30
2023-02-09T11:45:36.786Z,50.21
2023-02-09T11:48:08.689Z,53.19
2023-02-09T11:50:42.286Z,51.35
2023-02-09T11:53:19.557Z,56.41
2023-02-09T11:55:49.784Z,56.44
2023-02-09T11:58:31.071Z,54.80
2023-02-09T12:01:14.808Z,52.48
2023-02-09T12:03:53.717Z,54.98
2023-02-09T12:06:23.737Z,55.73
2023-02-09T12:09:00.118Z,52.93
2023-02-09T12:11:34.446Z,53.82
2023-02-09T12:14:13.646Z,54.99
2023-02-09T12:16:44.849Z,52.97
2023-02-09T12:19:27.543Z,53.25
2023-02-09T12:21:57.160Z,50.58
2023-02-09T12:24:33.902Z,47.51
2023-02-09T12:27:02.683Z,46.80
2023-02-09T12:29:38.971Z,45.64
2023-02-09T12:32:30.815Z,44.77
2023-02-09T12:35:26.008Z,45.68
2023-02-09T12:38:14.253Z,45.11
2023-02-09T12:40:42.658Z,44.08
2023-02-09T12:43:26.340Z,42.91
2023-02-09T12:46:23.551Z,42.72
2023-02-09T12:49:10.768Z,43.48
2023-02-09T12:51:45.661Z,43.66
2023-02-09T12:54:31.739Z,44.60
2023-02-09T12:57:33.372Z,42.03
2023-02-09T13:00:38.098Z,42.51
2023-02-09T13:03:14.185Z,41.42
2023-02-09T13:05:44.741Z,44.28
2023-02-09T13:08:17.615Z,44.93
2023-02-09T13:10:52.209Z,43.21
2023-02-09T13:13:25.072Z,41.84
2023-02-09T13:16:09.685Z,41.90
2023-02-09T13:18:47.300Z,41.34
2023-02-09T13:21:19.052Z,42.15
2023-02-09T13:23:59.714Z,42.15
2023-02-09T13:26:29.684Z,41.87
2023-02-09T13:29:19.922Z,42.49
2023-02-09T13:31:59.000Z,42.48
2023-02-09T13:34:33.039Z,41.70
2023-02-09T13:37:08.681Z,41.15
2023-02-09T13:39:39.634Z,42.07
2023-02-09T13:42:20.920Z,41.53
2023-02-09T13:44:52.193Z,42.15
2023-02-09T13:47:20.700Z,40.99
2023-02-09T13:49:59.912Z,41.74
2023-02-09T13:52:33.832Z,42.13
2023-02-09T13:55:12.612Z,42.00
2023-02-09T13:57:43.708Z,41.41
2023-02-09T14:00:21.662Z,41.05
2023-02-09T14:02:53.624Z,40.61
2023-02-09T14:05:28.189Z,40.56
2023-02-09T14:07:56.927Z,39.83
2023-02-09T14:10:25.853Z,43.32
2023-02-09T14:12:59.959Z,43.84
2023-02-09T14:15:52.566Z,43.64
2023-02-09T14:18:23.950Z,43.60
2023-02-09T14:21:03.084Z,44.91
2023-02-09T14:23:35.173Z,44.63
2023-02-09T14:26:05.710Z,44.60
2023-02-09T14:28:36.337Z,44.38
2023-02-09T14:31:04.576Z,44.13
2023-02-09T14:33:35.054Z,44.34
2023-02-09T14:36:03.412Z,42.93
2023-02-09T14:38:41.934Z,44.08
2023-02-09T14:41:29.832Z,43.03
2023-02-09T14:44:04.177Z,45.63
2023-02-09T14:46:48.502Z,47.06
2023-02-09T14:49:16.991Z,46.78
2023-02-09T14:51:45.618Z,48.30
2023-02-09T14:54:20.242Z,48.92
2023-02-09T14:56:48.707Z,47.59
2023-02-09T14:59:19.406Z,48.68
2023-02-09T15:01:48.901Z,47.43
2023-02-09T15:04:17.254Z,48.15
2023-02-09T15:06:48.810Z,49.21
2023-02-09T15:09:21.371Z,48.98
2023-02-09T15:12:08.031Z,48.93
2023-02-09T15:14:41.810Z,46.26
2023-02-09T15:17:18.324Z,48.28
2023-02-09T15:19:47.182Z,49.71
2023-02-09T15:22:16.688Z,48.47
2023-02-09T15:24:46.165Z,46.17
2023-02-09T15:27:27.227Z,48.05
2023-02-09T15:29:59.699Z,48.10
2023-02-09T15:32:29.470Z,46.74
2023-02-09T15:34:57.724Z,46.06
2023-02-09T15:37:28.268Z,45.54
2023-02-09T15:39:58.277Z,47.55
2023-02-09T15:42:44.243Z,46.91
2023-02-09T15:45:36.014Z,45.23
2023-02-09T15:48:04.976Z,45.19
2023-02-09T15:50:34.392Z,46.88
2023-02-09T15:53:04.435Z,46.83
2023-02-09T15:55:33.015Z,46.76
2023-02-09T15:58:01.438Z,46.62
2023-02-09T16:00:31.982Z,46.57
2023-02-09T16:03:01.410Z,46.88
2023-02-09T16:05:30.803Z,47.05
2023-02-09T16:07:59.821Z,46.75
2023-02-09T16:10:30.095Z,46.74
2023-02-09T16:12:58.640Z,46.53
2023-02-09T16:15:27.712Z,46.46
2023-02-09T16:17:57.291Z,47.75
2023-02-09T16:20:26.383Z,48.18
2023-02-09T16:22:55.898Z,48.67
2023-02-09T16:25:25.654Z,48.80
2023-02-09T16:27:55.122Z,49.54
2023-02-09T16:30:25.914Z,49.65
2023-02-09T16:32:54.868Z,49.93
2023-02-09T16:35:25.503Z,49.97
2023-02-09T16:37:53.550Z,50.13
2023-02-09T16:40:27.923Z,50.82
2023-02-09T16:42:56.814Z,51.45
2023-02-09T16:45:25.368Z,51.99
2023-02-09T16:47:57.163Z,52.49
2023-02-09T16:50:33.104Z,53.06
2023-02-09T16:53:03.334Z,54.00
2023-02-09T16:55:33.482Z,61.81
2023-02-09T16:58:03.836Z,65.74
2023-02-09T17:00:34.486Z,78.70
2023-02-09T17:03:04.210Z,91.03
2023-02-09T17:05:36.185Z,78.50
2023-02-09T17:08:07.798Z,72.34
2023-02-09T17:10:36.389Z,69.78
2023-02-09T17:13:04.821Z,67.84
2023-02-09T17:15:39.352Z,67.46
2023-02-09T17:18:09.313Z,67.06
2023-02-09T17:20:42.238Z,68.67
2023-02-09T17:23:14.993Z,70.89
2023-02-09T17:25:43.493Z,70.91
2023-02-09T17:28:12.577Z,70.91
2023-02-09T17:30:42.663Z,69.87
2023-02-09T17:33:15.581Z,73.18
2023-02-09T17:36:17.443Z,75.50
2023-02-09T17:38:35.665Z,74.64
2023-02-09T17:41:07.377Z,78.16
2023-02-09T17:43:35.651Z,76.66
2023-02-09T17:46:06.119Z,76.73
2023-02-09T17:48:34.574Z,84.05
2023-02-09T17:51:07.048Z,87.22
2023-02-09T17:53:36.114Z,100.00
2023-02-09T17:56:04.641Z,100.00
2023-02-09T17:58:32.982Z,100.00
2023-02-09T18:01:01.350Z,98.45
2023-02-09T18:03:29.685Z,95.63
2023-02-09T18:06:01.539Z,93.88
2023-02-09T18:08:31.377Z,97.32
2023-02-09T18:10:59.692Z,100.00
2023-02-09T18:13:28.142Z,99.95
2023-02-09T18:15:56.521Z,98.31
2023-02-09T18:18:24.925Z,100.00
2023-02-09T18:20:53.381Z,100.00
2023-02-09T18:23:23.123Z,100.00
2023-02-09T18:25:52.880Z,99.59
2023-02-09T18:28:21.289Z,99.11
2023-02-09T18:30:49.752Z,100.00
2023-02-09T18:33:18.910Z,100.00
2023-02-09T18:35:47.602Z,100.00
2023-02-09T18:38:16.411Z,100.00
2023-02-09T18:40:45.070Z,100.00
2023-02-09T18:43:15.849Z,100.00
2023-02-09T18:45:44.559Z,100.00
2023-02-09T18:48:13.443Z,100.00
2023-02-09T18:50:42.016Z,100.00
2023-02-09T18:53:12.475Z,100.00
2023-02-09T18:55:40.843Z,100.00
2023-02-09T18:58:10.307Z,100.00
2023-02-09T19:00:40.018Z,100.00
2023-02-09T19:03:08.318Z,100.00
2023-02-09T19:05:36.722Z,100.00
2023-02-09T19:08:07.360Z,100.00
2023-02-09T19:10:36.120Z,100.00
2023-02-09T19:13:05.025Z,100.00
2023-02-09T19:15:34.371Z,100.00
2023-02-09T19:18:04.299Z,100.00
2023-02-09T19:20:34.251Z,100.00
2023-02-09T19:23:03.850Z,100.00
2023-02-09T19:25:33.253Z,100.00
2023-02-09T19:28:01.663Z,100.00
2023-02-09T19:30:29.997Z,100.00
2023-02-09T19:32:58.774Z,100.00
2023-02-09T19:35:29.375Z,100.00
2023-02-09T19:37:57.995Z,100.00
2023-02-09T19:40:35.483Z,100.00
2023-02-09T19:43:04.781Z,100.00
2023-02-09T19:45:36.551Z,100.00
2023-02-09T19:48:05.392Z,100.00
2023-02-09T19:50:36.642Z,100.00
2023-02-09T19:53:06.325Z,100.00
2023-02-09T19:55:34.878Z,100.00
2023-02-09T19:58:03.258Z,100.00
2023-02-09T20:00:32.868Z,100.00
2023-02-09T20:03:01.312Z,100.00
2023-02-09T20:05:29.721Z,100.00
2023-02-09T20:07:59.418Z,100.00
2023-02-09T20:10:27.873Z,100.00
2023-02-09T20:12:56.170Z,100.00
2023-02-09T20:15:24.493Z,100.00
2023-02-09T20:17:52.979Z,100.00
2023-02-09T20:20:21.353Z,100.00
2023-02-09T20:22:51.115Z,100.00
2023-02-09T20:25:20.843Z,100.00
2023-02-09T20:27:50.308Z,100.00
2023-02-09T20:30:19.035Z,100.00
2023-02-09T20:32:47.409Z,100.00
2023-02-09T20:35:15.856Z,100.00
2023-02-09T20:37:44.315Z,100.00
2023-02-09T20:40:13.071Z,100.00
2023-02-09T20:43:00.342Z,100.00
2023-02-09T20:45:46.405Z,100.00
2023-02-09T20:48:14.732Z,100.00
2023-02-09T20:50:44.928Z,100.00
2023-02-09T20:53:13.625Z,100.00
2023-02-09T20:55:42.873Z,100.00
2023-02-09T20:58:13.780Z,100.00
2023-02-09T21:00:42.705Z,100.00
2023-02-09T21:03:11.151Z,100.00
2023-02-09T21:05:39.463Z,100.00
2023-02-09T21:08:09.199Z,100.00
2023-02-09T21:10:38.523Z,100.00
2023-02-09T21:13:07.934Z,100.00
2023-02-09T21:15:41.841Z,100.00
2023-02-09T21:18:10.124Z,100.00
2023-02-09T21:20:39.263Z,100.00
2023-02-09T21:23:07.498Z,100.00
2023-02-09T21:25:36.618Z,100.00
2023-02-09T21:28:05.181Z,100.00
2023-02-09T21:30:33.841Z,100.00
2023-02-09T21:33:03.451Z,100.00
2023-02-09T21:35:31.823Z,100.00
2023-02-09T21:38:00.111Z,100.00
2023-02-09T21:40:28.422Z,100.00
2023-02-09T21:42:56.656Z,100.00
2023-02-09T21:45:26.314Z,100.00
2023-02-09T21:47:54.646Z,100.00
2023-02-09T21:50:24.281Z,100.00
2023-02-09T21:52:54.621Z,100.00
2023-02-09T21:55:23.263Z,100.00
2023-02-09T21:57:51.615Z,100.00
2023-02-09T22:00:20.246Z,100.00
2023-02-09T22:02:52.949Z,100.00
2023-02-09T22:05:21.522Z,100.00
2023-02-09T22:07:51.625Z,100.00
2023-02-09T22:10:19.994Z,100.00
2023-02-09T22:12:48.301Z,100.00
2023-02-09T22:15:18.045Z,100.00
2023-02-09T22:17:47.985Z,100.00
2023-02-09T22:20:16.258Z,100.00
2023-02-09T22:22:45.958Z,100.00
2023-02-09T22:25:15.793Z,100.00
2023-02-09T22:27:44.089Z,100.00
2023-02-09T22:30:12.930Z,100.00
2023-02-09T22:32:41.411Z,100.00
2023-02-09T22:35:09.953Z,100.00
2023-02-09T22:37:38.299Z,100.00
2023-02-09T22:40:07.157Z,100.00
2023-02-09T22:42:36.833Z,100.00
2023-02-09T22:45:05.759Z,100.00
2023-02-09T22:47:34.858Z,100.00
2023-02-09T22:50:03.215Z,100.00
2023-02-09T22:52:31.561Z,100.00
2023-02-09T22:54:59.864Z,100.00
2023-02-09T22:57:28.332Z,100.00
2023-02-09T22:59:57.987Z,100.00
2023-02-09T23:02:26.533Z,100.00
2023-02-09T23:04:54.831Z,100.00
2023-02-09T23:07:23.127Z,100.00
2023-02-09T23:09:51.442Z,100.00
2023-02-09T23:12:19.832Z,100.00
2023-02-09T23:14:48.137Z,100.00
2023-02-09T23:17:17.865Z,100.00
2023-02-09T23:19:46.240Z,100.00
2023-02-09T23:22:14.575Z,100.00
2023-02-09T23:24:43.132Z,100.00
2023-02-09T23:27:11.450Z,100.00
2023-02-09T23:29:39.754Z,100.00
2023-02-09T23:32:08.080Z,100.00
2023-02-09T23:34:37.826Z,100.00
2023-02-09T23:37:13.764Z,100.00
2023-02-09T23:39:51.962Z,100.00
2023-02-09T23:42:20.358Z,100.00
2023-02-09T23:44:48.685Z,100.00
2023-02-09T23:47:17.201Z,100.00
2023-02-09T23:49:46.905Z,100.00
2023-02-09T23:52:15.234Z,100.00
2023-02-09T23:54:43.805Z,100.00
2023-02-09T23:57:12.143Z,100.00
2023-02-09T23:59:40.750Z,100.00
